Time;durP1;ratioP1;P1;durP2;ratioP2;P2;SDS_P1;SDS_P2;PMS_P1;PMS_P2;Temp;Humidity;BMP_temperature;BMP_pressure;BME280_temperature;BME280_humidity;BME280_pressure;Samples;Min_cycle;Max_cycle;Signal;HPM_P1;HPM_P2
2024/04/01 00:00:33;;;;;;;3.00;0.73;;;11.30;99.90;;;;;;5071559;28;20443;-74
2024/04/01 00:02:59;;;;;;;3.93;0.80;;;11.20;99.90;;;;;;5071589;28;20423;-74
2024/04/01 00:05:25;;;;;;;0.80;0.60;;;11.20;99.90;;;;;;5071694;28;20178;-74
2024/04/01 00:07:51;;;;;;;0.70;0.50;;;11.30;99.90;;;;;;5053372;28;20277;-74
2024/04/01 00:10:18;;;;;;;1.10;0.70;;;11.30;99.90;;;;;;5071911;28;20231;-74
2024/04/01 00:12:44;;;;;;;0.80;0.80;;;11.30;99.90;;;;;;5071603;28;20401;-74
2024/04/01 00:15:09;;;;;;;0.90;0.70;;;11.30;99.90;;;;;;5053665;28;20424;-73
2024/04/01 00:17:35;;;;;;;1.73;0.80;;;11.30;99.90;;;;;;5071497;28;20892;-74
2024/04/01 00:20:00;;;;;;;0.80;0.60;;;11.30;99.90;;;;;;5071515;28;20240;-73
2024/04/01 00:22:26;;;;;;;1.20;0.77;;;11.20;99.90;;;;;;5071936;28;20657;-74
2024/04/01 00:24:51;;;;;;;0.90;0.70;;;11.20;99.90;;;;;;5071453;28;20201;-74
2024/04/01 00:27:17;;;;;;;0.90;0.70;;;11.20;99.90;;;;;;5053503;28;20166;-75
2024/04/01 00:29:42;;;;;;;0.90;0.80;;;11.10;99.90;;;;;;5053789;28;20186;-74
2024/04/01 00:32:08;;;;;;;1.20;0.90;;;11.10;99.90;;;;;;5053535;28;20668;-74
2024/04/01 00:34:33;;;;;;;1.13;0.60;;;11.10;99.90;;;;;;5072371;28;20167;-75
2024/04/01 00:36:59;;;;;;;1.10;0.73;;;11.00;99.90;;;;;;5072140;28;20175;-74
2024/04/01 00:39:24;;;;;;;0.80;0.60;;;10.90;99.90;;;;;;5071846;28;20201;-74
2024/04/01 00:41:50;;;;;;;3.43;0.90;;;10.80;99.90;;;;;;5055003;28;20516;-73
2024/04/01 00:44:15;;;;;;;0.80;0.60;;;10.80;99.90;;;;;;5075054;28;20285;-73
2024/04/01 00:46:41;;;;;;;0.90;0.80;;;10.70;99.90;;;;;;5075477;28;20162;-74
2024/04/01 00:49:07;;;;;;;3.10;1.10;;;10.70;99.90;;;;;;5074711;28;20186;-74
2024/04/01 00:51:33;;;;;;;1.40;0.83;;;10.80;99.90;;;;;;5057193;28;20458;-73
2024/04/01 00:54:01;;;;;;;1.90;0.87;;;10.70;99.90;;;;;;5074886;28;20404;-74
2024/04/01 00:56:28;;;;;;;0.90;0.70;;;10.70;99.90;;;;;;5074835;28;20821;-74
2024/04/01 00:58:54;;;;;;;1.20;1.03;;;10.80;99.90;;;;;;5074294;28;20429;-74
2024/04/01 01:01:22;;;;;;;2.70;0.70;;;10.90;99.90;;;;;;5074769;28;20489;-74
2024/04/01 01:03:48;;;;;;;0.90;0.63;;;10.90;99.90;;;;;;5074919;28;20607;-74
2024/04/01 01:06:18;;;;;;;1.60;0.80;;;10.90;99.90;;;;;;5074656;28;20919;-74
2024/04/01 01:08:44;;;;;;;1.00;0.87;;;10.90;99.90;;;;;;5074378;28;20776;-74
2024/04/01 01:11:10;;;;;;;1.60;0.73;;;10.70;99.90;;;;;;5074627;28;20440;-74
2024/04/01 01:13:36;;;;;;;1.67;0.93;;;10.60;99.90;;;;;;5074811;28;20405;-74
2024/04/01 01:16:02;;;;;;;0.80;0.60;;;10.50;99.90;;;;;;5074543;28;20412;-73
2024/04/01 01:18:27;;;;;;;0.80;0.70;;;10.50;99.90;;;;;;5056380;28;20631;-74
2024/04/01 01:20:53;;;;;;;0.80;0.60;;;10.60;99.90;;;;;;5074343;28;20547;-73
2024/04/01 01:23:19;;;;;;;0.97;0.77;;;10.50;99.90;;;;;;5074643;28;20504;-75
2024/04/01 01:25:44;;;;;;;3.10;1.00;;;10.40;99.90;;;;;;5056105;28;20170;-74
2024/04/01 01:28:10;;;;;;;0.97;0.87;;;10.50;99.90;;;;;;5073673;28;20177;-74
2024/04/01 01:30:35;;;;;;;0.80;0.63;;;10.50;99.90;;;;;;5074302;28;20265;-73
2024/04/01 01:33:06;;;;;;;1.20;0.80;;;10.50;99.90;;;;;;5074615;28;20167;-72
2024/04/01 01:35:36;;;;;;;1.00;0.90;;;10.50;99.90;;;;;;5056088;28;20594;-73
2024/04/01 01:38:02;;;;;;;1.10;0.80;;;10.60;99.90;;;;;;5074159;28;20741;-75
2024/04/01 01:40:29;;;;;;;1.30;1.00;;;10.60;99.90;;;;;;5074213;28;21025;-74
2024/04/01 01:42:54;;;;;;;0.87;0.77;;;10.60;99.90;;;;;;5073878;28;20487;-74
2024/04/01 01:45:20;;;;;;;0.90;0.70;;;10.60;99.90;;;;;;5073866;28;20452;-74
2024/04/01 01:47:45;;;;;;;1.30;0.90;;;10.60;99.90;;;;;;5073768;28;20164;-74
2024/04/01 01:50:11;;;;;;;1.40;0.83;;;10.60;99.90;;;;;;5055931;28;20190;-73
2024/04/01 01:52:37;;;;;;;0.80;0.60;;;10.60;99.90;;;;;;5055684;28;20166;-74
2024/04/01 01:55:03;;;;;;;1.00;0.77;;;10.50;99.90;;;;;;5056239;28;20265;-74
2024/04/01 01:57:29;;;;;;;1.80;1.00;;;10.60;99.90;;;;;;5073869;28;20162;-74
2024/04/01 01:59:55;;;;;;;1.80;0.83;;;10.60;99.90;;;;;;5073788;28;20767;-74
2024/04/01 02:02:21;;;;;;;1.03;0.90;;;10.60;99.90;;;;;;5073865;28;20836;-74
2024/04/01 02:04:46;;;;;;;1.03;0.80;;;10.70;99.90;;;;;;5055824;28;20199;-74
2024/04/01 02:07:12;;;;;;;1.73;0.93;;;10.70;99.90;;;;;;5074194;28;20173;-74
2024/04/01 02:09:37;;;;;;;1.80;1.03;;;10.70;99.90;;;;;;5056333;28;20194;-73
2024/04/01 02:12:09;;;;;;;0.70;0.60;;;10.70;99.90;;;;;;5073581;28;20170;-74
2024/04/01 02:14:38;;;;;;;1.87;0.80;;;10.60;99.90;;;;;;5073530;28;20177;-74
2024/04/01 02:17:07;;;;;;;1.97;0.80;;;10.60;99.90;;;;;;5054878;28;20419;-74
2024/04/01 02:19:34;;;;;;;8.40;0.90;;;10.60;99.90;;;;;;5073084;28;20464;-74
2024/04/01 02:22:00;;;;;;;3.67;1.63;;;10.50;99.90;;;;;;5073304;28;20882;-73
2024/04/01 02:24:26;;;;;;;1.43;0.90;;;10.40;99.90;;;;;;5073118;28;20520;-73
2024/04/01 02:26:55;;;;;;;1.77;1.10;;;10.40;99.90;;;;;;5073016;28;20412;-73
2024/04/01 02:29:21;;;;;;;3.93;1.40;;;10.50;99.90;;;;;;5072766;28;20196;-73
2024/04/01 02:31:47;;;;;;;1.00;0.87;;;10.50;99.90;;;;;;5073066;28;20883;-73
2024/04/01 02:34:13;;;;;;;1.10;0.70;;;10.50;99.90;;;;;;5072994;28;20749;-73
2024/04/01 02:36:38;;;;;;;1.83;1.00;;;10.50;99.90;;;;;;5072978;28;20416;-74
2024/04/01 02:39:05;;;;;;;2.50;1.30;;;10.40;99.90;;;;;;5072536;28;20186;-73
2024/04/01 02:41:31;;;;;;;1.07;0.87;;;10.40;99.90;;;;;;5072913;28;20170;-73
2024/04/01 02:43:57;;;;;;;1.17;1.07;;;10.40;99.90;;;;;;5072708;28;20472;-73
2024/04/01 02:46:23;;;;;;;1.17;0.80;;;10.30;99.90;;;;;;5055019;28;20408;-73
2024/04/01 02:48:48;;;;;;;1.83;0.87;;;10.30;99.90;;;;;;5054773;28;20516;-73
2024/04/01 02:51:14;;;;;;;1.23;1.07;;;10.30;99.90;;;;;;5072776;28;20262;-74
2024/04/01 02:53:47;;;;;;;1.27;0.93;;;10.30;99.90;;;;;;5072640;28;20166;-73
2024/04/01 02:56:16;;;;;;;0.90;0.80;;;10.30;99.90;;;;;;5054661;28;20412;-73
2024/04/01 02:58:45;;;;;;;1.00;0.73;;;10.30;99.90;;;;;;5072264;28;20532;-73
2024/04/01 03:01:11;;;;;;;1.20;1.00;;;10.30;99.90;;;;;;5054473;28;20473;-74
2024/04/01 03:03:37;;;;;;;3.67;1.20;;;10.30;99.90;;;;;;5072043;28;20939;-73
2024/04/01 03:06:03;;;;;;;1.33;0.93;;;10.30;99.90;;;;;;5072225;28;20173;-74
2024/04/01 03:08:29;;;;;;;0.90;0.70;;;10.20;99.90;;;;;;5054109;28;20166;-73
2024/04/01 03:11:02;;;;;;;1.50;1.30;;;10.20;99.90;;;;;;5072138;28;20467;-73
2024/04/01 03:13:29;;;;;;;1.33;1.00;;;10.20;99.90;;;;;;5054199;28;20478;-73
2024/04/01 03:15:56;;;;;;;1.20;0.80;;;10.20;99.90;;;;;;5072250;28;20892;-75
2024/04/01 03:18:23;;;;;;;1.40;1.13;;;10.20;99.90;;;;;;5072049;28;20785;-74
2024/04/01 03:20:49;;;;;;;1.00;0.90;;;10.20;99.90;;;;;;5072196;28;20761;-74
2024/04/01 03:23:15;;;;;;;1.20;1.10;;;10.10;99.90;;;;;;5054148;28;20409;-74
2024/04/01 03:25:41;;;;;;;1.23;1.00;;;10.20;99.90;;;;;;5072048;28;20396;-73
2024/04/01 03:28:07;;;;;;;0.90;0.80;;;10.10;99.90;;;;;;5071096;28;20405;-73
2024/04/01 03:30:33;;;;;;;1.10;1.00;;;10.10;99.90;;;;;;5053933;28;20212;-73
2024/04/01 03:32:59;;;;;;;2.60;1.00;;;10.10;99.90;;;;;;5072590;28;20174;-74
2024/04/01 03:35:24;;;;;;;1.50;1.17;;;10.10;99.90;;;;;;5072542;28;20411;-73
2024/04/01 03:37:50;;;;;;;1.10;1.00;;;10.10;99.90;;;;;;5072458;28;20174;-73
2024/04/01 03:40:15;;;;;;;4.40;1.30;;;10.10;99.90;;;;;;5055081;28;20225;-73
2024/04/01 03:42:41;;;;;;;1.63;1.20;;;10.00;99.90;;;;;;5073149;28;20669;-73
2024/04/01 03:45:06;;;;;;;1.50;1.13;;;10.00;99.90;;;;;;5072070;28;20243;-73
2024/04/01 03:47:33;;;;;;;2.40;1.30;;;10.00;99.90;;;;;;5053846;28;20227;-74
2024/04/01 03:49:58;;;;;;;0.80;0.70;;;10.00;99.90;;;;;;5071848;28;20186;-74
2024/04/01 03:52:24;;;;;;;0.90;0.87;;;10.00;99.90;;;;;;5071867;28;20446;-73
2024/04/01 03:54:50;;;;;;;0.90;0.70;;;10.00;99.90;;;;;;5072014;28;20569;-73
2024/04/01 03:57:16;;;;;;;1.20;0.80;;;10.00;99.90;;;;;;5071817;28;20181;-73
2024/04/01 03:59:42;;;;;;;1.30;1.00;;;10.00;99.90;;;;;;5071880;28;20707;-73
2024/04/01 04:02:07;;;;;;;1.13;1.03;;;10.00;99.90;;;;;;5071553;28;20456;-73
2024/04/01 04:04:33;;;;;;;1.00;0.80;;;10.00;99.90;;;;;;5071802;28;20535;-73
2024/04/01 04:06:59;;;;;;;0.83;0.70;;;10.10;99.90;;;;;;5071785;28;20190;-73
2024/04/01 04:09:26;;;;;;;1.00;0.83;;;10.10;99.90;;;;;;5071691;28;20478;-73
2024/04/01 04:11:51;;;;;;;1.47;1.37;;;10.20;99.90;;;;;;5071646;28;20433;-74
2024/04/01 04:14:23;;;;;;;2.00;1.13;;;10.20;99.90;;;;;;5071773;28;20408;-73
2024/04/01 04:16:49;;;;;;;2.53;1.40;;;10.20;99.90;;;;;;5073390;28;20166;-74
2024/04/01 04:19:16;;;;;;;2.40;1.20;;;10.20;99.90;;;;;;5075567;28;20474;-73
2024/04/01 04:21:41;;;;;;;2.43;1.40;;;10.30;99.90;;;;;;5075549;28;20815;-73
2024/04/01 04:24:08;;;;;;;3.33;1.40;;;10.30;99.90;;;;;;5057637;28;20509;-74
2024/04/01 04:26:34;;;;;;;2.93;1.80;;;10.30;99.90;;;;;;5075522;28;20216;-74
2024/04/01 04:29:01;;;;;;;2.03;1.20;;;10.30;99.90;;;;;;5075167;28;20935;-74
2024/04/01 04:31:27;;;;;;;1.47;1.00;;;10.30;99.90;;;;;;5075413;28;20208;-73
2024/04/01 04:33:52;;;;;;;1.20;0.90;;;10.40;99.90;;;;;;5057355;28;20404;-73
2024/04/01 04:36:18;;;;;;;1.37;0.90;;;10.40;99.90;;;;;;5075315;28;20567;-73
2024/04/01 04:38:44;;;;;;;1.13;0.80;;;10.40;99.90;;;;;;5075148;28;20186;-73
2024/04/01 04:41:09;;;;;;;1.03;0.70;;;10.50;99.90;;;;;;5075529;28;20170;-74
2024/04/01 04:43:35;;;;;;;2.80;0.80;;;10.50;99.90;;;;;;5075285;28;20190;-73
2024/04/01 04:46:00;;;;;;;0.90;0.67;;;10.60;99.90;;;;;;5075347;28;20626;-73
2024/04/01 04:48:26;;;;;;;1.73;0.77;;;10.60;99.90;;;;;;5074813;28;20163;-73
2024/04/01 04:50:52;;;;;;;1.33;0.80;;;10.60;99.90;;;;;;5075208;28;20158;-73
2024/04/01 04:53:18;;;;;;;1.93;0.70;;;10.70;99.90;;;;;;5075058;28;20404;-74
2024/04/01 04:55:43;;;;;;;0.87;0.73;;;10.70;99.90;;;;;;5057296;28;20174;-73
2024/04/01 04:58:09;;;;;;;1.10;0.80;;;10.70;99.90;;;;;;5074969;28;20400;-74
2024/04/01 05:00:35;;;;;;;0.90;0.80;;;10.80;99.90;;;;;;5075089;28;20198;-73
2024/04/01 05:03:00;;;;;;;1.00;0.70;;;10.80;99.90;;;;;;5075127;28;20166;-73
2024/04/01 05:05:26;;;;;;;1.00;0.80;;;10.80;99.90;;;;;;5075012;28;20202;-73
2024/04/01 05:07:52;;;;;;;0.80;0.63;;;10.80;99.90;;;;;;5074897;28;20174;-73
2024/04/01 05:10:17;;;;;;;1.87;0.90;;;10.80;99.90;;;;;;5075200;28;20593;-73
2024/04/01 05:12:43;;;;;;;0.90;0.70;;;10.80;99.90;;;;;;5075215;28;20182;-73
2024/04/01 05:15:09;;;;;;;1.27;0.87;;;10.80;99.90;;;;;;5056925;28;20661;-73
2024/04/01 05:17:35;;;;;;;0.90;0.70;;;10.80;99.90;;;;;;5074160;28;20166;-74
2024/04/01 05:20:01;;;;;;;0.70;0.60;;;10.90;99.90;;;;;;5074481;28;20428;-73
2024/04/01 05:22:27;;;;;;;0.80;0.70;;;10.90;99.90;;;;;;5074621;28;20442;-74
2024/04/01 05:24:56;;;;;;;1.00;0.90;;;10.90;99.90;;;;;;5056676;28;20205;-73
2024/04/01 05:27:21;;;;;;;1.23;0.90;;;11.00;99.90;;;;;;5073613;28;20405;-73
2024/04/01 05:30:23;;;;;;;1.07;0.70;;;11.00;99.90;;;;;;5056575;28;20949;-73
2024/04/01 05:32:49;;;;;;;2.10;1.13;;;11.00;99.90;;;;;;4973356;28;20223;-73
2024/04/01 05:35:16;;;;;;;1.93;0.90;;;11.00;99.90;;;;;;5054099;28;20487;-74
2024/04/01 05:37:43;;;;;;;1.20;0.87;;;11.00;99.90;;;;;;5074012;28;20392;-74
2024/04/01 05:40:08;;;;;;;2.57;0.73;;;11.00;99.90;;;;;;5074375;28;20550;-73
2024/04/01 05:42:34;;;;;;;3.47;0.93;;;11.00;99.90;;;;;;5073977;28;20491;-73
2024/04/01 05:44:59;;;;;;;1.83;0.80;;;11.10;99.90;;;;;;5056229;28;20582;-73
2024/04/01 05:47:25;;;;;;;1.00;0.70;;;11.00;99.90;;;;;;5073832;28;20240;-73
2024/04/01 05:49:50;;;;;;;1.00;0.70;;;11.00;99.90;;;;;;5074097;28;20485;-73
2024/04/01 05:52:16;;;;;;;1.00;0.83;;;11.00;99.90;;;;;;5074158;28;20182;-73
2024/04/01 05:54:41;;;;;;;1.13;0.90;;;11.00;99.90;;;;;;5055946;28;20178;-74
2024/04/01 05:57:07;;;;;;;1.20;0.80;;;10.90;99.90;;;;;;5055835;28;20216;-73
2024/04/01 05:59:32;;;;;;;1.77;0.90;;;10.90;99.90;;;;;;5073801;28;20212;-73
2024/04/01 06:01:58;;;;;;;0.70;0.60;;;10.80;99.90;;;;;;5073442;28;20182;-73
2024/04/01 06:04:25;;;;;;;0.90;0.70;;;10.90;99.90;;;;;;5073398;28;20561;-73
2024/04/01 06:06:51;;;;;;;3.77;2.23;;;10.90;99.90;;;;;;5073974;28;20158;-74
2024/04/01 06:09:17;;;;;;;1.23;1.00;;;10.90;99.90;;;;;;5073403;28;20421;-73
2024/04/01 06:11:43;;;;;;;1.23;0.90;;;10.90;99.90;;;;;;5073986;28;20405;-74
2024/04/01 06:14:09;;;;;;;1.20;0.90;;;10.90;99.90;;;;;;5055873;28;20972;-73
2024/04/01 06:16:39;;;;;;;0.93;0.83;;;10.90;99.90;;;;;;5073739;28;20408;-74
2024/04/01 06:19:05;;;;;;;5.80;0.93;;;10.80;99.90;;;;;;5073144;28;20186;-73
2024/04/01 06:21:31;;;;;;;0.80;0.70;;;10.80;99.90;;;;;;5073791;28;20416;-74
2024/04/01 06:24:00;;;;;;;1.30;0.93;;;10.70;99.90;;;;;;5073362;28;20814;-73
2024/04/01 06:26:26;;;;;;;1.10;0.70;;;10.80;99.90;;;;;;5073402;28;20801;-74
2024/04/01 06:28:52;;;;;;;1.03;0.90;;;10.80;99.90;;;;;;5073144;28;20423;-74
2024/04/01 06:31:17;;;;;;;1.13;1.00;;;10.80;99.90;;;;;;5055423;28;20408;-74
2024/04/01 06:33:43;;;;;;;6.13;4.73;;;10.80;99.90;;;;;;5073332;28;20416;-74
2024/04/01 06:36:10;;;;;;;3.60;1.90;;;10.90;99.90;;;;;;5055093;28;20170;-74
2024/04/01 06:38:36;;;;;;;1.67;1.00;;;10.80;99.90;;;;;;5072631;28;20411;-74
2024/04/01 06:41:02;;;;;;;1.20;1.10;;;10.80;99.90;;;;;;5073402;28;20436;-73
2024/04/01 06:43:27;;;;;;;1.00;0.80;;;10.80;99.90;;;;;;5073950;28;20441;-74
2024/04/01 06:45:54;;;;;;;2.20;1.17;;;10.90;99.90;;;;;;5055442;28;20969;-74
2024/04/01 06:48:22;;;;;;;1.10;0.83;;;10.90;99.90;;;;;;5072703;28;20170;-74
2024/04/01 06:50:47;;;;;;;1.20;0.80;;;10.90;99.90;;;;;;5055132;28;20811;-74
2024/04/01 06:53:15;;;;;;;0.90;0.70;;;10.90;99.90;;;;;;5072878;28;20396;-74
2024/04/01 06:55:40;;;;;;;1.33;0.90;;;11.00;99.90;;;;;;5072975;28;20173;-74
2024/04/01 06:58:08;;;;;;;0.93;0.80;;;11.00;99.90;;;;;;5072442;28;20714;-74
2024/04/01 07:00:34;;;;;;;0.90;0.80;;;11.00;99.90;;;;;;5072382;28;20239;-74
2024/04/01 07:02:59;;;;;;;3.63;0.93;;;11.10;99.90;;;;;;5072622;28;20404;-74
2024/04/01 07:05:25;;;;;;;1.30;1.07;;;11.20;99.90;;;;;;5072364;28;20568;-73
2024/04/01 07:07:50;;;;;;;1.37;0.80;;;11.20;99.90;;;;;;5072088;28;20658;-74
2024/04/01 07:10:16;;;;;;;1.00;0.80;;;11.30;99.90;;;;;;5072499;28;20357;-74
2024/04/01 07:12:41;;;;;;;1.10;0.80;;;11.40;99.90;;;;;;5072529;28;20675;-74
2024/04/01 07:15:08;;;;;;;1.27;1.10;;;11.40;99.90;;;;;;5072446;28;20189;-73
2024/04/01 07:17:34;;;;;;;1.03;0.83;;;11.50;99.90;;;;;;5072121;28;20170;-74
2024/04/01 07:20:00;;;;;;;1.67;0.80;;;11.50;99.90;;;;;;5072298;28;20434;-74
2024/04/01 07:22:25;;;;;;;1.63;1.00;;;11.60;99.90;;;;;;5054177;28;20846;-74
2024/04/01 07:24:51;;;;;;;0.90;0.80;;;11.70;99.90;;;;;;5072102;28;20814;-73
2024/04/01 07:27:17;;;;;;;1.43;0.80;;;11.70;99.90;;;;;;5054020;28;20261;-74
2024/04/01 07:29:42;;;;;;;2.07;0.80;;;11.80;99.90;;;;;;5072085;28;20285;-74
2024/04/01 07:32:08;;;;;;;0.80;0.70;;;11.80;99.90;;;;;;5054321;28;20518;-74
2024/04/01 07:34:33;;;;;;;1.00;0.90;;;11.80;99.90;;;;;;5071963;28;20177;-74
2024/04/01 07:36:59;;;;;;;2.27;1.70;;;11.80;99.90;;;;;;5054054;28;20201;-74
2024/04/01 07:39:25;;;;;;;2.53;1.50;;;11.70;99.90;;;;;;5072393;28;20676;-74
2024/04/01 07:41:50;;;;;;;1.30;1.00;;;11.80;99.90;;;;;;5072034;28;20163;-74
2024/04/01 07:44:16;;;;;;;1.40;0.93;;;11.80;99.90;;;;;;5072240;28;20566;-74
2024/04/01 07:46:41;;;;;;;3.33;0.90;;;11.80;99.90;;;;;;5052667;28;20181;-69
2024/04/01 07:49:07;;;;;;;1.10;0.80;;;11.80;99.90;;;;;;5071542;28;20178;-69
2024/04/01 07:51:32;;;;;;;5.03;1.20;;;11.80;99.90;;;;;;5053585;28;20170;-69
2024/04/01 07:53:58;;;;;;;1.40;1.30;;;11.70;99.90;;;;;;5071659;28;20670;-69
2024/04/01 07:56:24;;;;;;;3.03;1.00;;;11.70;99.90;;;;;;5071741;28;20198;-68
2024/04/01 07:58:49;;;;;;;1.83;1.53;;;11.70;99.90;;;;;;5071673;28;20223;-69
2024/04/01 08:01:15;;;;;;;1.23;1.13;;;11.70;99.90;;;;;;5071647;28;20213;-70
2024/04/01 08:03:40;;;;;;;2.37;1.00;;;11.70;99.90;;;;;;5071614;28;20255;-69
2024/04/01 08:06:06;;;;;;;1.30;1.20;;;11.80;99.90;;;;;;5053937;28;20249;-69
2024/04/01 08:08:31;;;;;;;1.60;1.50;;;11.80;99.90;;;;;;5071288;28;20178;-69
2024/04/01 08:10:57;;;;;;;1.60;1.50;;;11.80;99.90;;;;;;5071553;28;20160;-69
2024/04/01 08:13:22;;;;;;;2.30;2.10;;;11.80;99.90;;;;;;5071493;28;20162;-69
2024/04/01 08:16:00;;;;;;;3.00;2.80;;;11.70;99.90;;;;;;5071505;28;20166;-68
2024/04/01 08:18:26;;;;;;;2.40;1.70;;;11.60;99.90;;;;;;5071284;28;20177;-69
2024/04/01 08:20:52;;;;;;;1.93;1.80;;;11.60;99.90;;;;;;5071363;28;20487;-69
2024/04/01 08:23:18;;;;;;;1.87;1.47;;;11.60;99.90;;;;;;5053696;28;20405;-69
2024/04/01 08:25:43;;;;;;;3.60;1.90;;;11.60;99.90;;;;;;5071472;28;20170;-69
2024/04/01 08:28:09;;;;;;;1.90;1.73;;;11.70;99.90;;;;;;5071347;28;20586;-69
2024/04/01 08:30:34;;;;;;;1.80;1.50;;;11.80;99.90;;;;;;5071305;28;20208;-69
2024/04/01 08:33:00;;;;;;;1.77;1.67;;;11.80;99.90;;;;;;5071354;28;20170;-69
2024/04/01 08:35:25;;;;;;;4.20;2.10;;;11.90;99.90;;;;;;5071317;28;20169;-69
2024/04/01 08:37:51;;;;;;;3.90;2.00;;;11.90;99.90;;;;;;5071106;28;20573;-69
2024/04/01 08:40:16;;;;;;;2.27;2.07;;;12.00;99.90;;;;;;5071142;28;20190;-69
2024/04/01 08:42:46;;;;;;;1.87;1.77;;;12.10;99.90;;;;;;5071235;28;20182;-70
2024/04/01 08:45:13;;;;;;;1.50;1.40;;;12.20;99.90;;;;;;5071180;28;20210;-69
2024/04/01 08:47:43;;;;;;;2.00;1.13;;;12.20;99.90;;;;;;5071006;28;20400;-70
2024/04/01 08:50:19;;;;;;;1.93;1.67;;;12.30;99.90;;;;;;5071113;28;20507;-68
2024/04/01 08:52:57;;;;;;;1.67;1.57;;;12.30;99.90;;;;;;5071052;28;20400;-70
2024/04/01 08:55:24;;;;;;;2.13;1.70;;;12.30;99.90;;;;;;5070444;28;20394;-69
2024/04/01 08:57:50;;;;;;;2.10;1.90;;;12.30;99.90;;;;;;5071048;28;20432;-69
2024/04/01 09:00:18;;;;;;;2.43;1.70;;;12.40;99.90;;;;;;5070811;28;20416;-69
2024/04/01 09:02:44;;;;;;;4.37;3.80;;;12.40;99.90;;;;;;5054389;28;20466;-69
2024/04/01 09:05:09;;;;;;;2.20;2.07;;;12.40;99.90;;;;;;5074806;28;20464;-68
2024/04/01 09:07:35;;;;;;;3.47;2.47;;;12.50;99.90;;;;;;5074420;28;20166;-69
2024/04/01 09:10:01;;;;;;;2.40;2.20;;;12.40;99.90;;;;;;5074496;28;20669;-69
2024/04/01 09:12:27;;;;;;;3.20;2.90;;;12.30;99.90;;;;;;5074751;28;20454;-69
2024/04/01 09:14:53;;;;;;;2.73;2.53;;;12.20;99.90;;;;;;5074330;28;20261;-69
2024/04/01 09:17:28;;;;;;;3.90;3.57;;;12.30;99.90;;;;;;5074186;28;20495;-69
2024/04/01 09:20:01;;;;;;;3.90;3.60;;;12.20;99.90;;;;;;5074272;28;20186;-69
2024/04/01 09:22:26;;;;;;;6.23;5.70;;;12.40;99.90;;;;;;5074410;28;20815;-69
2024/04/01 09:24:52;;;;;;;4.33;3.93;;;12.40;99.90;;;;;;5074278;28;20452;-69
2024/04/01 09:27:17;;;;;;;4.43;4.03;;;12.50;99.90;;;;;;5074063;28;20170;-68
2024/04/01 09:29:42;;;;;;;3.97;3.67;;;12.60;99.90;;;;;;5069381;28;20186;-69
2024/04/01 09:32:09;;;;;;;8.00;4.30;;;12.70;99.90;;;;;;5056635;28;20175;-69
2024/04/01 09:34:35;;;;;;;4.60;4.20;;;12.60;99.90;;;;;;5055918;28;20164;-68
2024/04/01 09:37:01;;;;;;;4.30;3.90;;;12.40;99.90;;;;;;5068839;28;20404;-69
2024/04/01 09:39:27;;;;;;;4.30;3.90;;;12.50;99.90;;;;;;5074012;28;20440;-69
2024/04/01 09:41:53;;;;;;;3.87;3.57;;;12.50;99.90;;;;;;5072383;28;20504;-69
2024/04/01 09:44:18;;;;;;;3.60;3.00;;;12.50;99.90;;;;;;5072407;28;20494;-69
2024/04/01 09:46:44;;;;;;;3.43;3.17;;;12.40;99.90;;;;;;5074036;28;20169;-69
2024/04/01 09:49:11;;;;;;;4.13;3.50;;;12.60;99.90;;;;;;5073875;28;20186;-69
2024/04/01 09:51:37;;;;;;;3.67;3.20;;;12.60;99.90;;;;;;5064382;28;20195;-69
2024/04/01 09:54:04;;;;;;;3.07;2.70;;;12.80;99.90;;;;;;5053657;28;20996;-70
2024/04/01 09:57:04;;;;;;;2.53;2.33;;;13.00;99.90;;;;;;5053826;28;20505;-69
2024/04/01 09:59:38;;;;;;;5.73;2.57;;;13.10;99.90;;;;;;5053606;28;20324;-68
2024/04/01 10:02:29;;;;;;;2.73;2.50;;;13.40;99.90;;;;;;5063788;28;20435;-69
2024/04/01 10:05:46;;;;;;;2.20;2.00;;;13.70;99.90;;;;;;5073454;28;20448;-70
2024/04/01 10:08:30;;;;;;;1.97;1.83;;;14.00;99.90;;;;;;5073337;28;20416;-69
2024/04/01 10:11:29;;;;;;;8.27;5.77;;;14.20;99.90;;;;;;5071816;28;21026;-69
2024/04/01 10:14:32;;;;;;;5.43;2.77;;;14.20;99.90;;;;;;5073225;28;20405;-69
2024/04/01 10:17:00;;;;;;;2.03;1.90;;;14.10;99.90;;;;;;5053523;28;20501;-70
2024/04/01 10:19:51;;;;;;;2.20;2.00;;;14.00;99.90;;;;;;5054326;28;20468;-70
2024/04/01 10:22:36;;;;;;;2.10;1.50;;;14.10;99.90;;;;;;5068132;28;20798;-69
2024/04/01 10:25:25;;;;;;;1.53;1.43;;;14.10;99.90;;;;;;5073113;28;20455;-69
2024/04/01 10:28:39;;;;;;;3.00;1.83;;;14.00;99.90;;;;;;5072253;28;20818;-70
2024/04/01 10:31:43;;;;;;;2.17;1.67;;;14.10;99.90;;;;;;4963317;28;20468;-69
2024/04/01 10:34:36;;;;;;;2.20;2.00;;;14.10;99.90;;;;;;5054391;28;20413;-70
2024/04/01 10:37:20;;;;;;;2.87;1.80;;;14.20;99.90;;;;;;5059031;28;20413;-69
2024/04/01 10:40:00;;;;;;;2.57;2.27;;;14.20;99.90;;;;;;5055361;28;20460;-69
2024/04/01 10:42:41;;;;;;;1.93;1.70;;;14.20;99.90;;;;;;5072840;28;20404;-69
2024/04/01 10:45:18;;;;;;;2.00;1.57;;;14.40;99.90;;;;;;5070630;28;20983;-69
2024/04/01 10:47:54;;;;;;;1.90;1.70;;;14.60;99.90;;;;;;5071717;28;20408;-69
2024/04/01 10:50:25;;;;;;;2.03;1.77;;;14.80;99.90;;;;;;5059725;28;20520;-69
2024/04/01 10:53:28;;;;;;;3.20;1.53;;;14.90;99.90;;;;;;5072581;28;20438;-70
2024/04/01 10:56:22;;;;;;;2.03;1.57;;;15.10;99.90;;;;;;5058524;28;20940;-70
2024/04/01 10:59:23;;;;;;;4.03;2.70;;;14.90;99.90;;;;;;5052402;28;21013;-69
2024/04/01 11:02:09;;;;;;;2.40;1.87;;;15.00;99.90;;;;;;5052521;28;20421;-69
2024/04/01 11:05:03;;;;;;;1.93;1.67;;;14.90;99.90;;;;;;5052682;28;20514;-70
2024/04/01 11:07:46;;;;;;;2.03;1.80;;;14.90;99.90;;;;;;5034279;28;20508;-69
2024/04/01 11:10:39;;;;;;;2.57;1.80;;;14.90;99.90;;;;;;5042745;28;20481;-69
2024/04/01 11:13:13;;;;;;;2.00;1.80;;;15.00;99.90;;;;;;5071539;28;20440;-69
2024/04/01 11:15:40;;;;;;;1.80;1.63;;;15.00;99.90;;;;;;5071850;28;20475;-69
2024/04/01 11:18:14;;;;;;;2.17;2.00;;;15.00;99.90;;;;;;5051632;28;20416;-69
2024/04/01 11:20:44;;;;;;;2.27;2.07;;;14.90;99.90;;;;;;5051906;28;20490;-69
2024/04/01 11:23:30;;;;;;;2.90;1.70;;;14.90;99.90;;;;;;5051943;28;20405;-69
2024/04/01 11:26:18;;;;;;;2.90;2.23;;;14.80;99.90;;;;;;5051820;28;20474;-69
2024/04/01 11:29:11;;;;;;;5.13;1.73;;;14.60;99.90;;;;;;5051820;28;20401;-70
2024/04/01 11:31:44;;;;;;;2.27;1.53;;;14.70;99.90;;;;;;5052246;28;20756;-69
2024/04/01 11:34:18;;;;;;;5.93;1.93;;;14.70;99.90;;;;;;5051893;28;20458;-69
2024/04/01 11:36:48;;;;;;;2.13;1.90;;;14.80;99.90;;;;;;5051919;28;20492;-70
2024/04/01 11:39:16;;;;;;;4.40;1.83;;;14.80;99.90;;;;;;5051584;28;20443;-69
2024/04/01 11:41:46;;;;;;;7.13;4.93;;;15.00;99.90;;;;;;5051848;28;20397;-70
2024/04/01 11:44:13;;;;;;;4.03;2.63;;;15.10;99.90;;;;;;5051913;28;20448;-69
2024/04/01 11:46:42;;;;;;;3.40;2.10;;;15.20;99.90;;;;;;5051794;28;20947;-69
2024/04/01 11:49:08;;;;;;;2.07;1.83;;;15.10;99.90;;;;;;5051385;28;20421;-69
2024/04/01 11:51:34;;;;;;;4.83;4.17;;;14.80;99.90;;;;;;5051771;28;20806;-69
2024/04/01 11:54:00;;;;;;;3.77;2.83;;;14.50;99.90;;;;;;5051690;28;20158;-69
2024/04/01 11:56:42;;;;;;;4.33;2.53;;;14.40;99.90;;;;;;5051711;28;20531;-70
2024/04/01 11:59:11;;;;;;;3.70;3.27;;;14.40;99.90;;;;;;5051752;28;20689;-69
2024/04/01 12:01:41;;;;;;;6.60;4.30;;;14.30;99.90;;;;;;5051595;28;20463;-69
2024/04/01 12:04:17;;;;;;;2.27;1.70;;;14.50;99.90;;;;;;5051583;28;20595;-69
2024/04/01 12:06:43;;;;;;;1.60;1.50;;;14.30;99.90;;;;;;5051705;28;20397;-70
2024/04/01 12:09:12;;;;;;;3.10;2.90;;;14.40;99.90;;;;;;5051247;28;20440;-70
2024/04/01 12:11:42;;;;;;;9.70;8.83;;;14.50;99.90;;;;;;5052083;28;20754;-69
2024/04/01 12:14:09;;;;;;;2.90;2.43;;;14.40;99.90;;;;;;5051356;28;20807;-69
2024/04/01 12:16:36;;;;;;;3.77;2.67;;;14.30;99.90;;;;;;5051562;28;20406;-69
2024/04/01 12:19:02;;;;;;;2.50;2.00;;;14.10;99.90;;;;;;5051186;28;20490;-69
2024/04/01 12:21:31;;;;;;;8.03;3.27;;;14.10;99.90;;;;;;5051456;28;20413;-69
2024/04/01 12:23:57;;;;;;;10.67;4.43;;;14.00;99.90;;;;;;5051605;28;20536;-69
2024/04/01 12:26:23;;;;;;;3.70;2.20;;;13.90;99.90;;;;;;5051400;28;20496;-69
2024/04/01 12:28:51;;;;;;;2.17;1.43;;;13.80;99.90;;;;;;5051059;28;20270;-70
2024/04/01 12:31:19;;;;;;;2.60;1.70;;;13.50;99.90;;;;;;5051314;28;20413;-70
2024/04/01 12:33:47;;;;;;;3.20;2.73;;;13.60;99.90;;;;;;5051627;28;20401;-69
2024/04/01 12:36:13;;;;;;;4.93;4.33;;;13.50;99.90;;;;;;5051294;28;20476;-68
2024/04/01 12:38:41;;;;;;;4.37;3.97;;;13.20;99.90;;;;;;5053945;28;20459;-69
2024/04/01 12:41:07;;;;;;;5.37;4.00;;;13.10;99.90;;;;;;5055142;28;20493;-69
2024/04/01 12:43:39;;;;;;;3.80;3.40;;;13.20;99.90;;;;;;5055298;28;20405;-69
2024/04/01 12:46:05;;;;;;;10.33;6.30;;;13.00;99.90;;;;;;5055074;28;20398;-70
2024/04/01 12:48:31;;;;;;;23.30;13.80;;;13.00;99.90;;;;;;5054371;28;20409;-68
2024/04/01 12:51:02;;;;;;;5.30;1.60;;;13.00;99.90;;;;;;5063074;28;20195;-69
2024/04/01 12:53:27;;;;;;;2.60;1.30;;;12.90;99.90;;;;;;5061186;28;20941;-69